createdAt,value
2019-03-17T00:00:24.255Z,69.99
2019-03-17T00:02:53.705Z,70.03
2019-03-17T00:05:23.225Z,70.00
2019-03-17T00:07:52.693Z,70.28
2019-03-17T00:10:22.145Z,70.25
2019-03-17T00:12:51.614Z,69.65
2019-03-17T00:15:21.072Z,69.77
2019-03-17T00:17:50.520Z,69.91
2019-03-17T00:20:19.999Z,69.84
2019-03-17T00:22:49.467Z,69.86
2019-03-17T00:25:19.007Z,69.96
2019-03-17T00:27:48.457Z,70.13
2019-03-17T00:30:17.980Z,70.08
2019-03-17T00:32:47.454Z,69.93
2019-03-17T00:35:16.911Z,69.68
2019-03-17T00:37:46.389Z,70.00
2019-03-17T00:40:15.874Z,70.47
2019-03-17T00:42:45.372Z,70.19
2019-03-17T00:45:14.923Z,69.96
2019-03-17T00:47:44.371Z,69.66
2019-03-17T00:50:13.904Z,69.83
2019-03-17T00:52:43.368Z,69.89
2019-03-17T00:55:12.891Z,69.81
2019-03-17T00:57:43.213Z,69.58
2019-03-17T01:00:16.691Z,69.36
2019-03-17T01:02:46.139Z,69.54
2019-03-17T01:05:15.590Z,69.55
2019-03-17T01:07:45.053Z,68.99
2019-03-17T01:10:14.644Z,69.13
2019-03-17T01:12:45.079Z,69.54
2019-03-17T01:15:14.623Z,69.72
2019-03-17T01:17:44.077Z,69.15
2019-03-17T01:20:13.716Z,69.02
2019-03-17T01:22:43.237Z,69.70
2019-03-17T01:25:12.689Z,69.22
2019-03-17T01:27:42.159Z,69.81
2019-03-17T01:30:14.498Z,69.35
2019-03-17T01:32:43.953Z,68.94
2019-03-17T01:35:13.488Z,69.21
2019-03-17T01:37:42.937Z,69.10
2019-03-17T01:40:12.875Z,68.85
2019-03-17T01:42:42.343Z,68.86
2019-03-17T01:45:11.869Z,68.90
2019-03-17T01:47:41.342Z,69.39
2019-03-17T01:50:11.130Z,68.98
2019-03-17T01:52:40.580Z,68.88
2019-03-17T01:55:10.188Z,68.80
2019-03-17T01:57:39.640Z,68.51
2019-03-17T02:00:13.556Z,68.71
2019-03-17T02:02:43.009Z,68.76
2019-03-17T02:05:21.383Z,68.54
2019-03-17T02:07:43.724Z,68.42
2019-03-17T02:10:13.514Z,68.38
2019-03-17T02:12:43.103Z,68.71
2019-03-17T02:15:12.713Z,68.18
2019-03-17T02:17:42.176Z,68.14
2019-03-17T02:20:12.285Z,68.38
2019-03-17T02:22:41.743Z,68.21
2019-03-17T02:25:11.215Z,68.35
2019-03-17T02:27:40.661Z,68.76
2019-03-17T02:30:13.897Z,68.54
2019-03-17T02:32:43.351Z,68.15
2019-03-17T02:35:12.863Z,67.87
2019-03-17T02:37:42.311Z,67.97
2019-03-17T02:40:11.778Z,67.97
2019-03-17T02:42:41.227Z,67.84
2019-03-17T02:45:11.642Z,68.15
2019-03-17T02:47:41.340Z,67.89
2019-03-17T02:50:10.966Z,67.63
2019-03-17T02:52:40.441Z,67.35
2019-03-17T02:55:10.730Z,67.02
2019-03-17T02:57:40.172Z,67.13
2019-03-17T03:00:11.623Z,67.06
2019-03-17T03:02:41.078Z,67.73
2019-03-17T03:05:11.236Z,67.16
2019-03-17T03:07:40.778Z,67.18
2019-03-17T03:10:10.419Z,67.68
2019-03-17T03:12:39.841Z,67.22
2019-03-17T03:15:09.945Z,66.87
2019-03-17T03:17:39.571Z,67.46
2019-03-17T03:20:12.102Z,67.17
2019-03-17T03:22:41.570Z,67.19
2019-03-17T03:25:11.031Z,66.64
2019-03-17T03:27:40.498Z,67.00
2019-03-17T03:30:13.311Z,66.94
2019-03-17T03:32:42.850Z,67.25
2019-03-17T03:35:12.406Z,67.31
2019-03-17T03:37:41.879Z,66.87
2019-03-17T03:40:13.354Z,66.61
2019-03-17T03:42:42.797Z,66.44
2019-03-17T03:45:13.501Z,66.94
2019-03-17T03:47:42.963Z,66.36
2019-03-17T03:50:13.259Z,66.38
2019-03-17T03:52:42.770Z,66.73
2019-03-17T03:55:12.327Z,67.10
2019-03-17T03:57:41.801Z,67.23
2019-03-17T04:00:16.168Z,66.60
2019-03-17T04:02:45.790Z,66.52
2019-03-17T04:05:15.247Z,66.44
2019-03-17T04:07:44.884Z,66.58
2019-03-17T04:10:14.438Z,66.54
2019-03-17T04:12:43.876Z,66.64
2019-03-17T04:15:13.491Z,66.66
2019-03-17T04:17:42.960Z,66.58
2019-03-17T04:20:13.147Z,66.57
2019-03-17T04:22:42.583Z,66.61
2019-03-17T04:25:13.868Z,66.82
2019-03-17T04:27:43.321Z,66.85
2019-03-17T04:30:12.854Z,66.61
2019-03-17T04:32:42.321Z,66.68
2019-03-17T04:35:12.010Z,66.47
2019-03-17T04:37:41.709Z,66.77
2019-03-17T04:40:11.443Z,66.85
2019-03-17T04:42:40.956Z,66.87
2019-03-17T04:45:10.843Z,66.83
2019-03-17T04:47:40.314Z,66.75
2019-03-17T04:50:10.616Z,67.27
2019-03-17T04:52:40.090Z,66.61
2019-03-17T04:55:09.617Z,67.07
2019-03-17T04:57:39.087Z,66.72
2019-03-17T05:00:13.349Z,66.75
2019-03-17T05:02:42.785Z,66.42
2019-03-17T05:05:12.395Z,66.93
2019-03-17T05:07:41.866Z,66.24
2019-03-17T05:10:11.695Z,66.61
2019-03-17T05:12:41.141Z,66.62
2019-03-17T05:15:11.750Z,66.16
2019-03-17T05:17:41.214Z,66.14
2019-03-17T05:20:11.527Z,66.13
2019-03-17T05:22:41.057Z,65.98
2019-03-17T05:25:10.665Z,66.21
2019-03-17T05:27:40.356Z,66.69
2019-03-17T05:30:12.140Z,66.29
2019-03-17T05:32:41.608Z,66.78
2019-03-17T05:35:11.382Z,66.49
2019-03-17T05:37:40.855Z,66.90
2019-03-17T05:40:10.942Z,66.58
2019-03-17T05:42:41.140Z,66.44
2019-03-17T05:45:10.996Z,66.26
2019-03-17T05:47:40.591Z,66.29
2019-03-17T05:50:11.049Z,66.90
2019-03-17T05:52:40.556Z,66.91
2019-03-17T05:55:10.741Z,66.91
2019-03-17T05:57:40.212Z,66.56
2019-03-17T06:00:15.914Z,66.17
2019-03-17T06:02:45.437Z,66.17
2019-03-17T06:05:14.908Z,66.67
2019-03-17T06:07:44.376Z,66.81
2019-03-17T06:10:13.834Z,68.00
2019-03-17T06:12:43.285Z,67.67
2019-03-17T06:15:13.198Z,68.20
2019-03-17T06:17:42.759Z,67.82
2019-03-17T06:20:13.184Z,68.12
2019-03-17T06:22:42.694Z,67.94
2019-03-17T06:25:12.221Z,68.27
2019-03-17T06:27:41.693Z,67.97
2019-03-17T06:30:14.500Z,67.55
2019-03-17T06:32:43.952Z,68.89
2019-03-17T06:35:13.432Z,68.13
2019-03-17T06:37:42.883Z,68.17
2019-03-17T06:40:13.671Z,68.41
2019-03-17T06:42:43.127Z,67.80
2019-03-17T06:45:12.576Z,68.14
2019-03-17T06:47:42.049Z,68.01
2019-03-17T06:50:17.524Z,68.11
2019-03-17T06:52:46.975Z,68.00
2019-03-17T06:55:19.386Z,68.09
2019-03-17T06:57:48.837Z,68.59
2019-03-17T07:00:18.431Z,67.55
2019-03-17T07:02:47.909Z,68.03
2019-03-17T07:05:17.380Z,67.50
2019-03-17T07:07:46.854Z,67.62
2019-03-17T07:10:16.300Z,67.53
2019-03-17T07:12:45.753Z,67.94
2019-03-17T07:15:15.208Z,67.60
2019-03-17T07:17:44.686Z,67.88
2019-03-17T07:20:15.106Z,68.47
2019-03-17T07:22:44.554Z,68.46
2019-03-17T07:25:14.078Z,69.36
2019-03-17T07:27:43.548Z,70.00
2019-03-17T07:30:18.657Z,70.47
2019-03-17T07:32:48.127Z,69.52
2019-03-17T07:35:17.578Z,69.13
2019-03-17T07:37:56.095Z,69.52
2019-03-17T07:40:18.224Z,69.23
2019-03-17T07:42:47.695Z,69.30
2019-03-17T07:45:17.161Z,68.72
2019-03-17T07:47:46.639Z,68.47
2019-03-17T07:50:16.088Z,68.23
2019-03-17T07:52:45.538Z,67.06
2019-03-17T07:55:15.013Z,67.33
2019-03-17T07:57:44.487Z,67.21
2019-03-17T08:00:14.909Z,67.62
2019-03-17T08:02:44.361Z,67.58
2019-03-17T08:05:13.831Z,67.63
2019-03-17T08:07:43.281Z,68.73
2019-03-17T08:10:15.241Z,69.41
2019-03-17T08:12:44.762Z,69.46
2019-03-17T08:15:15.069Z,69.57
2019-03-17T08:17:44.556Z,69.30
2019-03-17T08:20:14.649Z,69.79
2019-03-17T08:22:44.176Z,69.75
2019-03-17T08:25:13.693Z,70.70
2019-03-17T08:27:43.195Z,70.73
2019-03-17T08:30:17.835Z,70.92
2019-03-17T08:32:47.426Z,70.80
2019-03-17T08:35:17.129Z,71.22
2019-03-17T08:37:46.577Z,72.04
2019-03-17T08:40:18.527Z,72.04
2019-03-17T08:42:48.071Z,72.58
2019-03-17T08:45:17.529Z,72.48
2019-03-17T08:47:57.355Z,72.86
2019-03-17T08:50:18.182Z,73.08
2019-03-17T08:52:47.629Z,74.04
2019-03-17T08:55:17.115Z,74.32
2019-03-17T08:57:46.566Z,73.93
2019-03-17T09:00:21.582Z,73.56
2019-03-17T09:02:51.058Z,74.97
2019-03-17T09:05:20.528Z,74.92
2019-03-17T09:07:50.237Z,74.61
2019-03-17T09:10:19.702Z,75.78
2019-03-17T09:12:49.161Z,75.01
2019-03-17T09:15:18.610Z,75.29
2019-03-17T09:17:48.089Z,74.68
2019-03-17T09:20:17.547Z,74.19
2019-03-17T09:22:46.994Z,74.08
2019-03-17T09:25:16.464Z,75.05
2019-03-17T09:27:46.175Z,75.20
2019-03-17T09:30:17.342Z,74.87
2019-03-17T09:32:46.813Z,74.38
2019-03-17T09:35:16.366Z,74.38
2019-03-17T09:37:45.862Z,74.38
2019-03-17T09:40:16.854Z,73.56
2019-03-17T09:42:46.364Z,73.25
2019-03-17T09:45:16.668Z,72.59
2019-03-17T09:47:46.128Z,73.13
2019-03-17T09:50:20.412Z,72.40
2019-03-17T09:52:49.872Z,73.02
2019-03-17T09:55:19.325Z,73.79
2019-03-17T09:57:48.777Z,73.80
2019-03-17T10:00:21.348Z,75.02
2019-03-17T10:02:50.852Z,73.96
2019-03-17T10:05:20.374Z,73.24
2019-03-17T10:07:49.847Z,71.44
2019-03-17T10:10:24.318Z,71.10
2019-03-17T10:12:53.767Z,71.46
2019-03-17T10:15:23.231Z,71.71
2019-03-17T10:17:52.685Z,71.40
2019-03-17T10:20:22.215Z,70.77
2019-03-17T10:22:51.689Z,71.64
2019-03-17T10:25:21.131Z,71.42
2019-03-17T10:27:50.584Z,70.63
2019-03-17T10:30:21.468Z,68.25
2019-03-17T10:32:50.949Z,68.66
2019-03-17T10:35:20.493Z,67.50
2019-03-17T10:37:49.942Z,67.31
2019-03-17T10:40:21.800Z,67.29
2019-03-17T10:42:51.519Z,67.51
2019-03-17T10:45:20.976Z,67.80
2019-03-17T10:47:50.449Z,68.38
2019-03-17T10:50:21.323Z,68.08
2019-03-17T10:52:50.800Z,68.34
2019-03-17T10:55:20.252Z,68.53
2019-03-17T10:57:49.770Z,68.51
2019-03-17T11:00:22.790Z,67.83
2019-03-17T11:02:52.252Z,68.33
2019-03-17T11:05:21.709Z,69.09
2019-03-17T11:07:51.183Z,69.14
2019-03-17T11:10:20.648Z,68.00
2019-03-17T11:12:50.105Z,67.69
2019-03-17T11:15:23.879Z,67.61
2019-03-17T11:17:53.394Z,66.84
2019-03-17T11:20:22.858Z,66.22
2019-03-17T11:22:52.328Z,67.15
2019-03-17T11:25:22.050Z,65.95
2019-03-17T11:27:51.574Z,66.58
2019-03-17T11:30:22.354Z,66.35
2019-03-17T11:32:51.812Z,65.32
2019-03-17T11:35:21.287Z,65.44
2019-03-17T11:37:50.732Z,65.88
2019-03-17T11:40:22.079Z,64.91
2019-03-17T11:42:51.612Z,64.73
2019-03-17T11:45:21.060Z,65.02
2019-03-17T11:47:50.947Z,64.26
2019-03-17T11:50:21.723Z,63.48
2019-03-17T11:52:51.616Z,64.56
2019-03-17T11:55:21.147Z,64.21
2019-03-17T11:57:50.622Z,63.55
2019-03-17T12:00:26.150Z,63.57
2019-03-17T12:02:55.597Z,62.79
2019-03-17T12:05:25.075Z,63.12
2019-03-17T12:07:54.599Z,62.56
2019-03-17T12:10:24.692Z,63.27
2019-03-17T12:12:54.163Z,62.92
2019-03-17T12:15:32.235Z,62.87
2019-03-17T12:18:01.711Z,62.83
2019-03-17T12:20:31.162Z,62.76
2019-03-17T12:23:00.608Z,61.03
2019-03-17T12:25:30.163Z,61.32
2019-03-17T12:27:59.622Z,61.03
2019-03-17T12:30:29.433Z,61.49
2019-03-17T12:32:58.882Z,61.52
2019-03-17T12:35:28.337Z,61.46
2019-03-17T12:37:57.800Z,61.43
2019-03-17T12:40:27.262Z,61.15
2019-03-17T12:42:56.709Z,60.83
2019-03-17T12:45:26.194Z,60.56
2019-03-17T12:47:55.958Z,60.29
2019-03-17T12:50:27.783Z,61.06
2019-03-17T12:52:57.253Z,61.68
2019-03-17T12:55:26.834Z,61.25
2019-03-17T12:57:56.284Z,62.02
2019-03-17T13:00:28.951Z,61.96
2019-03-17T13:02:58.392Z,62.52
2019-03-17T13:05:27.868Z,62.21
2019-03-17T13:07:57.322Z,63.05
2019-03-17T13:10:26.765Z,60.71
2019-03-17T13:12:56.233Z,59.37
2019-03-17T13:15:25.692Z,58.27
2019-03-17T13:17:55.161Z,56.70
2019-03-17T13:20:24.624Z,55.16
2019-03-17T13:22:54.081Z,54.03
2019-03-17T13:25:23.540Z,55.25
2019-03-17T13:27:53.017Z,54.42
2019-03-17T13:30:22.473Z,55.36
2019-03-17T13:32:51.935Z,54.63
2019-03-17T13:35:21.408Z,54.41
2019-03-17T13:37:50.951Z,55.66
2019-03-17T13:40:29.591Z,54.74
2019-03-17T13:42:52.618Z,53.94
2019-03-17T13:45:22.103Z,53.71
2019-03-17T13:47:53.032Z,52.73
2019-03-17T13:50:24.019Z,53.23
2019-03-17T13:52:53.479Z,53.08
2019-03-17T13:55:23.206Z,53.38
2019-03-17T13:58:10.889Z,52.49
2019-03-17T14:00:40.360Z,52.93
2019-03-17T14:03:09.841Z,51.01
2019-03-17T14:05:39.306Z,49.00
2019-03-17T14:08:08.762Z,47.77
2019-03-17T14:10:41.314Z,50.22
2019-03-17T14:13:09.658Z,49.28
2019-03-17T14:15:39.120Z,46.32
2019-03-17T14:18:08.591Z,48.12
2019-03-17T14:20:38.065Z,49.23
2019-03-17T14:23:07.517Z,48.98
2019-03-17T14:25:38.711Z,49.53
2019-03-17T14:28:08.179Z,49.92
2019-03-17T14:30:37.663Z,51.06
2019-03-17T14:33:07.167Z,55.92
2019-03-17T14:35:36.875Z,59.46
2019-03-17T14:38:06.384Z,61.14
2019-03-17T14:40:35.875Z,62.25
2019-03-17T14:43:05.321Z,64.33
2019-03-17T14:45:34.777Z,66.32
2019-03-17T14:48:04.314Z,67.21
2019-03-17T14:50:33.766Z,66.79
2019-03-17T14:53:03.228Z,63.16
2019-03-17T14:55:32.702Z,58.83
2019-03-17T14:58:02.148Z,55.71
2019-03-17T15:00:31.599Z,51.92
2019-03-17T15:03:01.074Z,53.41
2019-03-17T15:05:30.543Z,53.48
2019-03-17T15:08:00.018Z,52.55
2019-03-17T15:10:29.479Z,51.72
2019-03-17T15:12:58.939Z,50.87
2019-03-17T15:15:28.420Z,50.10
2019-03-17T15:17:57.874Z,50.16
2019-03-17T15:20:28.197Z,48.56
2019-03-17T15:22:57.736Z,48.27
2019-03-17T15:25:27.278Z,48.73
2019-03-17T15:27:56.825Z,47.63
2019-03-17T15:30:28.101Z,46.22
2019-03-17T15:32:57.691Z,45.82
2019-03-17T15:35:27.238Z,46.11
2019-03-17T15:37:56.692Z,43.88
2019-03-17T15:40:26.145Z,45.40
2019-03-17T15:42:55.617Z,45.39
2019-03-17T15:45:25.705Z,49.16
2019-03-17T15:47:55.174Z,50.69
2019-03-17T15:50:29.413Z,49.81
2019-03-17T15:52:58.873Z,50.87
2019-03-17T15:55:28.356Z,48.63
2019-03-17T15:57:57.827Z,45.78
2019-03-17T16:00:27.641Z,47.37
2019-03-17T16:02:57.267Z,48.92
2019-03-17T16:05:26.728Z,47.05
2019-03-17T16:07:56.267Z,46.54
2019-03-17T16:10:33.509Z,46.17
2019-03-17T16:13:03.048Z,44.74
2019-03-17T16:15:32.576Z,45.44
2019-03-17T16:18:02.090Z,45.48
2019-03-17T16:20:31.516Z,44.78
2019-03-17T16:23:00.977Z,45.18
2019-03-17T16:25:38.708Z,44.39
2019-03-17T16:28:08.243Z,44.33
2019-03-17T16:30:37.714Z,45.42
2019-03-17T16:33:07.292Z,46.16
2019-03-17T16:35:36.691Z,47.04
2019-03-17T16:38:06.226Z,47.27
2019-03-17T16:40:36.529Z,46.93
2019-03-17T16:43:06.833Z,49.14
2019-03-17T16:45:36.306Z,50.21
2019-03-17T16:48:05.936Z,49.74
2019-03-17T16:50:35.404Z,50.73
2019-03-17T16:53:05.010Z,50.68
2019-03-17T16:55:34.585Z,51.16
2019-03-17T16:58:04.050Z,51.98
2019-03-17T17:00:33.507Z,51.61
2019-03-17T17:03:02.971Z,52.11
2019-03-17T17:05:34.966Z,53.17
2019-03-17T17:08:03.640Z,52.68
2019-03-17T17:10:33.118Z,52.61
2019-03-17T17:13:02.571Z,52.31
2019-03-17T17:15:33.952Z,53.01
2019-03-17T17:18:03.403Z,53.17
2019-03-17T17:20:39.598Z,53.73
2019-03-17T17:23:09.051Z,53.42
2019-03-17T17:25:38.599Z,53.58
2019-03-17T17:28:08.052Z,53.55
2019-03-17T17:30:37.526Z,53.82
2019-03-17T17:33:07.043Z,54.00
2019-03-17T17:35:36.495Z,54.28
2019-03-17T17:38:06.047Z,56.29
2019-03-17T17:40:35.498Z,56.59
2019-03-17T17:43:04.956Z,57.08
2019-03-17T17:45:34.432Z,57.50
2019-03-17T17:48:03.901Z,58.76
2019-03-17T17:50:34.255Z,60.39
2019-03-17T17:53:03.711Z,60.15
2019-03-17T17:55:33.179Z,61.61
2019-03-17T17:58:02.659Z,61.73
2019-03-17T18:00:39.452Z,64.37
2019-03-17T18:03:08.920Z,65.52
2019-03-17T18:05:38.365Z,65.67
2019-03-17T18:08:07.820Z,66.11
2019-03-17T18:10:37.287Z,66.93
2019-03-17T18:13:06.745Z,65.93
2019-03-17T18:15:36.468Z,65.27
2019-03-17T18:18:06.017Z,65.36
2019-03-17T18:20:35.472Z,66.30
2019-03-17T18:23:16.918Z,66.12
2019-03-17T18:25:36.116Z,65.68
2019-03-17T18:28:05.877Z,65.79
2019-03-17T18:30:35.327Z,66.53
2019-03-17T18:33:04.867Z,66.68
2019-03-17T18:35:34.314Z,66.66
2019-03-17T18:38:03.777Z,66.58
2019-03-17T18:40:33.241Z,66.61
2019-03-17T18:43:02.700Z,66.87
2019-03-17T18:45:33.684Z,66.92
2019-03-17T18:48:03.134Z,68.13
2019-03-17T18:50:32.578Z,67.93
2019-03-17T18:53:02.077Z,67.76
2019-03-17T18:55:31.594Z,67.79
2019-03-17T18:58:01.055Z,68.14
2019-03-17T19:00:30.575Z,68.60
2019-03-17T19:03:00.013Z,68.36
2019-03-17T19:05:29.493Z,67.78
2019-03-17T19:07:58.962Z,67.34
2019-03-17T19:10:28.437Z,68.13
2019-03-17T19:12:58.453Z,67.88
2019-03-17T19:15:27.901Z,67.30
2019-03-17T19:17:57.381Z,67.61
2019-03-17T19:20:26.837Z,67.32
2019-03-17T19:22:56.287Z,68.26
2019-03-17T19:25:26.666Z,67.62
2019-03-17T19:27:56.185Z,67.82
2019-03-17T19:30:25.703Z,68.68
2019-03-17T19:32:55.492Z,68.38
2019-03-17T19:35:25.020Z,68.88
2019-03-17T19:37:54.509Z,68.85
2019-03-17T19:40:25.356Z,68.80
2019-03-17T19:42:59.316Z,68.52
2019-03-17T19:45:25.993Z,69.11
2019-03-17T19:47:55.462Z,69.57
2019-03-17T19:50:24.920Z,68.75
2019-03-17T19:52:54.439Z,68.86
2019-03-17T19:55:23.934Z,69.31
2019-03-17T19:57:53.527Z,69.49
2019-03-17T20:00:23.546Z,69.07
2019-03-17T20:02:53.022Z,68.47
2019-03-17T20:05:22.468Z,67.72
2019-03-17T20:07:51.942Z,67.66
2019-03-17T20:10:26.740Z,68.19
2019-03-17T20:12:56.287Z,67.95
2019-03-17T20:15:25.739Z,68.22
2019-03-17T20:17:55.444Z,68.98
2019-03-17T20:20:24.927Z,68.57
2019-03-17T20:22:54.396Z,68.26
2019-03-17T20:25:23.859Z,68.39
2019-03-17T20:27:53.318Z,68.18
2019-03-17T20:30:22.782Z,67.94
2019-03-17T20:32:52.239Z,68.59
2019-03-17T20:35:21.688Z,68.71
2019-03-17T20:37:51.159Z,69.17
2019-03-17T20:40:20.845Z,69.37
2019-03-17T20:42:50.318Z,69.97
2019-03-17T20:45:20.597Z,71.13
2019-03-17T20:47:50.195Z,70.78
2019-03-17T20:50:22.423Z,70.66
2019-03-17T20:52:51.877Z,71.37
2019-03-17T20:55:21.337Z,71.20
2019-03-17T20:57:50.836Z,72.14
2019-03-17T21:00:20.890Z,71.23
2019-03-17T21:02:50.589Z,72.50
2019-03-17T21:05:20.055Z,72.46
2019-03-17T21:07:49.500Z,72.58
2019-03-17T21:10:19.018Z,72.81
2019-03-17T21:12:48.485Z,72.80
2019-03-17T21:15:20.821Z,73.22
2019-03-17T21:17:50.291Z,73.87
2019-03-17T21:20:22.432Z,73.58
2019-03-17T21:22:51.966Z,73.09
2019-03-17T21:25:21.415Z,73.26
2019-03-17T21:27:50.939Z,72.95
2019-03-17T21:30:31.856Z,72.39
2019-03-17T21:33:01.303Z,72.32
2019-03-17T21:35:30.769Z,71.71
2019-03-17T21:38:00.220Z,71.40
2019-03-17T21:40:29.693Z,70.90
2019-03-17T21:42:59.140Z,70.69
2019-03-17T21:45:28.590Z,71.17
2019-03-17T21:47:58.062Z,71.36
2019-03-17T21:50:27.530Z,71.17
2019-03-17T21:52:56.985Z,70.32
2019-03-17T21:55:26.434Z,70.40
2019-03-17T21:57:55.883Z,69.67
2019-03-17T22:00:25.417Z,69.38
2019-03-17T22:02:55.379Z,70.26
2019-03-17T22:05:24.920Z,70.17
2019-03-17T22:07:54.433Z,69.74
2019-03-17T22:10:23.996Z,69.46
2019-03-17T22:12:53.492Z,69.84
2019-03-17T22:15:22.964Z,69.71
2019-03-17T22:17:52.414Z,69.65
2019-03-17T22:20:22.136Z,70.29
2019-03-17T22:22:51.585Z,70.29
2019-03-17T22:25:21.053Z,70.33
2019-03-17T22:27:50.523Z,71.75
2019-03-17T22:30:21.069Z,71.76
2019-03-17T22:32:50.521Z,71.77
2019-03-17T22:35:20.004Z,71.31
2019-03-17T22:37:49.458Z,71.41
2019-03-17T22:40:19.858Z,71.15
2019-03-17T22:42:49.317Z,70.96
2019-03-17T22:45:18.828Z,71.15
2019-03-17T22:47:48.300Z,71.14
2019-03-17T22:50:18.866Z,71.77
2019-03-17T22:52:48.377Z,72.77
2019-03-17T22:55:18.015Z,72.09
2019-03-17T22:57:47.462Z,72.11
2019-03-17T23:00:26.483Z,71.49
2019-03-17T23:02:55.936Z,71.56
2019-03-17T23:05:26.069Z,70.90
2019-03-17T23:07:55.526Z,71.71
2019-03-17T23:10:24.973Z,71.51
2019-03-17T23:12:54.435Z,71.33
2019-03-17T23:15:23.893Z,72.02
2019-03-17T23:17:53.367Z,71.70
2019-03-17T23:20:22.818Z,72.21
2019-03-17T23:22:52.274Z,72.35
2019-03-17T23:25:21.735Z,72.71
2019-03-17T23:27:51.252Z,72.84
2019-03-17T23:30:22.113Z,72.23
2019-03-17T23:32:51.727Z,73.10
2019-03-17T23:35:21.182Z,72.90
2019-03-17T23:37:50.645Z,72.19
2019-03-17T23:40:20.183Z,72.95
2019-03-17T23:42:49.660Z,73.38
2019-03-17T23:45:19.111Z,72.96
2019-03-17T23:47:48.571Z,73.21
2019-03-17T23:50:18.031Z,72.67
2019-03-17T23:52:47.579Z,72.76
2019-03-17T23:55:17.141Z,74.15
2019-03-17T23:57:46.579Z,74.24
